sensor_id;sensor_type;location;lat;lon;timestamp;temperature;humidity
46217;DHT22;47258;59.424;13.482;2022-08-19T00:00:18;19.30;99.90
46217;DHT22;47258;59.424;13.482;2022-08-19T00:02:45;19.30;99.90
46217;DHT22;47258;59.424;13.482;2022-08-19T00:05:13;19.40;99.90
46217;DHT22;47258;59.424;13.482;2022-08-19T00:07:41;19.30;99.90
46217;DHT22;47258;59.424;13.482;2022-08-19T00:10:10;19.30;99.90
46217;DHT22;47258;59.424;13.482;2022-08-19T00:12:39;19.30;99.90
46217;DHT22;47258;59.424;13.482;2022-08-19T00:15:09;19.30;99.90
46217;DHT22;47258;59.424;13.482;2022-08-19T00:17:38;19.30;99.90
46217;DHT22;47258;59.424;13.482;2022-08-19T00:20:06;19.30;99.90
46217;DHT22;47258;59.424;13.482;2022-08-19T00:22:34;19.30;99.90
46217;DHT22;47258;59.424;13.482;2022-08-19T00:25:01;19.30;99.90
46217;DHT22;47258;59.424;13.482;2022-08-19T00:27:28;19.30;99.90
46217;DHT22;47258;59.424;13.482;2022-08-19T00:29:56;19.30;99.90
46217;DHT22;47258;59.424;13.482;2022-08-19T00:32:24;19.30;99.90
46217;DHT22;47258;59.424;13.482;2022-08-19T00:34:51;19.30;99.90
46217;DHT22;47258;59.424;13.482;2022-08-19T00:37:19;19.20;99.90
46217;DHT22;47258;59.424;13.482;2022-08-19T00:39:48;19.20;99.90
46217;DHT22;47258;59.424;13.482;2022-08-19T00:42:17;19.20;99.90
46217;DHT22;47258;59.424;13.482;2022-08-19T00:44:44;19.30;99.90
46217;DHT22;47258;59.424;13.482;2022-08-19T00:47:13;19.30;99.90
46217;DHT22;47258;59.424;13.482;2022-08-19T00:49:43;19.30;99.90
46217;DHT22;47258;59.424;13.482;2022-08-19T00:52:21;19.20;99.90
46217;DHT22;47258;59.424;13.482;2022-08-19T00:54:50;19.10;99.90
46217;DHT22;47258;59.424;13.482;2022-08-19T00:57:21;19.10;99.90
46217;DHT22;47258;59.424;13.482;2022-08-19T00:59:51;19.00;99.90
46217;DHT22;47258;59.424;13.482;2022-08-19T01:02:20;19.00;99.90
46217;DHT22;47258;59.424;13.482;2022-08-19T01:04:47;19.00;99.90
46217;DHT22;47258;59.424;13.482;2022-08-19T01:07:14;19.00;99.90
46217;DHT22;47258;59.424;13.482;2022-08-19T01:09:42;19.00;99.90
46217;DHT22;47258;59.424;13.482;2022-08-19T01:12:09;18.90;99.90
46217;DHT22;47258;59.424;13.482;2022-08-19T01:14:37;18.80;99.90
46217;DHT22;47258;59.424;13.482;2022-08-19T01:17:06;18.80;99.90
46217;DHT22;47258;59.424;13.482;2022-08-19T01:19:37;18.80;99.90
46217;DHT22;47258;59.424;13.482;2022-08-19T01:22:11;18.70;99.90
46217;DHT22;47258;59.424;13.482;2022-08-19T01:24:40;18.70;99.90
46217;DHT22;47258;59.424;13.482;2022-08-19T01:27:08;18.80;99.90
46217;DHT22;47258;59.424;13.482;2022-08-19T01:29:38;18.80;99.90
46217;DHT22;47258;59.424;13.482;2022-08-19T01:32:06;18.80;99.90
46217;DHT22;47258;59.424;13.482;2022-08-19T01:34:33;18.70;99.90
46217;DHT22;47258;59.424;13.482;2022-08-19T01:37:06;18.70;99.90
46217;DHT22;47258;59.424;13.482;2022-08-19T01:39:33;18.70;99.90
46217;DHT22;47258;59.424;13.482;2022-08-19T01:42:02;18.70;99.90
46217;DHT22;47258;59.424;13.482;2022-08-19T01:44:30;18.70;99.90
46217;DHT22;47258;59.424;13.482;2022-08-19T01:46:57;18.70;99.90
46217;DHT22;47258;59.424;13.482;2022-08-19T01:49:24;18.70;99.90
46217;DHT22;47258;59.424;13.482;2022-08-19T01:51:52;18.70;99.90
46217;DHT22;47258;59.424;13.482;2022-08-19T01:54:22;18.70;99.90
46217;DHT22;47258;59.424;13.482;2022-08-19T01:56:49;18.80;99.90
46217;DHT22;47258;59.424;13.482;2022-08-19T01:59:20;18.80;99.90
46217;DHT22;47258;59.424;13.482;2022-08-19T02:01:49;18.80;99.90
46217;DHT22;47258;59.424;13.482;2022-08-19T02:04:16;18.80;99.90
46217;DHT22;47258;59.424;13.482;2022-08-19T02:06:43;18.90;99.90
46217;DHT22;47258;59.424;13.482;2022-08-19T02:09:10;18.90;99.90
46217;DHT22;47258;59.424;13.482;2022-08-19T02:11:37;18.90;99.90
46217;DHT22;47258;59.424;13.482;2022-08-19T02:14:06;18.90;99.90
46217;DHT22;47258;59.424;13.482;2022-08-19T02:16:36;18.90;99.90
46217;DHT22;47258;59.424;13.482;2022-08-19T02:19:04;18.90;99.90
46217;DHT22;47258;59.424;13.482;2022-08-19T02:21:31;18.90;99.90
46217;DHT22;47258;59.424;13.482;2022-08-19T02:23:59;18.90;99.90
46217;DHT22;47258;59.424;13.482;2022-08-19T02:26:26;18.90;99.90
46217;DHT22;47258;59.424;13.482;2022-08-19T02:28:54;18.90;99.90
46217;DHT22;47258;59.424;13.482;2022-08-19T02:31:24;18.90;99.90
46217;DHT22;47258;59.424;13.482;2022-08-19T02:33:52;18.90;99.90
46217;DHT22;47258;59.424;13.482;2022-08-19T02:36:21;18.90;99.90
46217;DHT22;47258;59.424;13.482;2022-08-19T02:38:48;18.90;99.90
46217;DHT22;47258;59.424;13.482;2022-08-19T02:41:19;18.90;99.90
46217;DHT22;47258;59.424;13.482;2022-08-19T02:43:46;18.90;99.90
46217;DHT22;47258;59.424;13.482;2022-08-19T02:46:15;18.90;99.90
46217;DHT22;47258;59.424;13.482;2022-08-19T02:48:46;18.90;99.90
46217;DHT22;47258;59.424;13.482;2022-08-19T02:51:18;18.90;99.90
46217;DHT22;47258;59.424;13.482;2022-08-19T02:53:45;18.90;99.90
46217;DHT22;47258;59.424;13.482;2022-08-19T02:56:12;18.90;99.90
46217;DHT22;47258;59.424;13.482;2022-08-19T02:58:40;18.90;99.90
46217;DHT22;47258;59.424;13.482;2022-08-19T03:01:09;18.90;99.90
46217;DHT22;47258;59.424;13.482;2022-08-19T03:03:38;18.90;99.90
46217;DHT22;47258;59.424;13.482;2022-08-19T03:06:10;18.80;99.90
46217;DHT22;47258;59.424;13.482;2022-08-19T03:08:41;18.80;99.90
46217;DHT22;47258;59.424;13.482;2022-08-19T03:11:13;18.80;99.90
46217;DHT22;47258;59.424;13.482;2022-08-19T03:13:40;18.80;99.90
46217;DHT22;47258;59.424;13.482;2022-08-19T03:16:08;18.80;99.90
46217;DHT22;47258;59.424;13.482;2022-08-19T03:18:35;18.70;99.90
46217;DHT22;47258;59.424;13.482;2022-08-19T03:21:03;18.80;99.90
46217;DHT22;47258;59.424;13.482;2022-08-19T03:23:30;18.70;99.90
46217;DHT22;47258;59.424;13.482;2022-08-19T03:25:59;18.70;99.90
46217;DHT22;47258;59.424;13.482;2022-08-19T03:28:30;18.80;99.90
46217;DHT22;47258;59.424;13.482;2022-08-19T03:30:59;18.80;99.90
46217;DHT22;47258;59.424;13.482;2022-08-19T03:33:27;18.80;99.90
46217;DHT22;47258;59.424;13.482;2022-08-19T03:36:11;18.80;99.90
46217;DHT22;47258;59.424;13.482;2022-08-19T03:38:40;18.70;99.90
46217;DHT22;47258;59.424;13.482;2022-08-19T03:41:11;18.70;99.90
46217;DHT22;47258;59.424;13.482;2022-08-19T03:43:39;18.70;99.90
46217;DHT22;47258;59.424;13.482;2022-08-19T03:46:09;18.60;99.90
46217;DHT22;47258;59.424;13.482;2022-08-19T03:48:37;18.50;99.90
46217;DHT22;47258;59.424;13.482;2022-08-19T03:51:05;18.50;99.90
46217;DHT22;47258;59.424;13.482;2022-08-19T03:53:33;18.40;99.90
46217;DHT22;47258;59.424;13.482;2022-08-19T03:56:01;18.50;99.90
46217;DHT22;47258;59.424;13.482;2022-08-19T03:58:30;18.50;99.90
46217;DHT22;47258;59.424;13.482;2022-08-19T04:00:57;18.50;99.90
46217;DHT22;47258;59.424;13.482;2022-08-19T04:03:24;18.50;99.90
46217;DHT22;47258;59.424;13.482;2022-08-19T04:05:52;18.40;99.90
46217;DHT22;47258;59.424;13.482;2022-08-19T04:08:20;18.30;99.90
46217;DHT22;47258;59.424;13.482;2022-08-19T04:10:48;18.30;99.90
46217;DHT22;47258;59.424;13.482;2022-08-19T04:13:15;18.30;99.90
46217;DHT22;47258;59.424;13.482;2022-08-19T04:15:44;18.30;99.90
46217;DHT22;47258;59.424;13.482;2022-08-19T04:18:13;18.30;99.90
46217;DHT22;47258;59.424;13.482;2022-08-19T04:20:42;18.40;99.90
46217;DHT22;47258;59.424;13.482;2022-08-19T04:23:09;18.50;99.90
46217;DHT22;47258;59.424;13.482;2022-08-19T04:25:38;18.60;99.90
46217;DHT22;47258;59.424;13.482;2022-08-19T04:28:06;18.60;99.90
46217;DHT22;47258;59.424;13.482;2022-08-19T04:30:40;18.60;99.90
46217;DHT22;47258;59.424;13.482;2022-08-19T04:33:09;18.70;99.90
46217;DHT22;47258;59.424;13.482;2022-08-19T04:35:38;18.70;99.90
46217;DHT22;47258;59.424;13.482;2022-08-19T04:38:06;18.70;99.90
46217;DHT22;47258;59.424;13.482;2022-08-19T04:40:33;18.90;99.90
46217;DHT22;47258;59.424;13.482;2022-08-19T04:43:17;18.90;99.90
46217;DHT22;47258;59.424;13.482;2022-08-19T04:45:45;19.00;99.90
46217;DHT22;47258;59.424;13.482;2022-08-19T04:48:13;19.10;99.90
46217;DHT22;47258;59.424;13.482;2022-08-19T04:50:41;19.10;99.90
46217;DHT22;47258;59.424;13.482;2022-08-19T04:53:09;19.20;99.90
46217;DHT22;47258;59.424;13.482;2022-08-19T04:55:39;19.20;99.90
46217;DHT22;47258;59.424;13.482;2022-08-19T04:58:07;19.30;99.90
46217;DHT22;47258;59.424;13.482;2022-08-19T05:00:34;19.30;99.90
46217;DHT22;47258;59.424;13.482;2022-08-19T05:03:03;19.40;99.90
46217;DHT22;47258;59.424;13.482;2022-08-19T05:05:31;19.40;99.90
46217;DHT22;47258;59.424;13.482;2022-08-19T05:07:59;19.40;99.90
46217;DHT22;47258;59.424;13.482;2022-08-19T05:10:26;19.50;99.90
46217;DHT22;47258;59.424;13.482;2022-08-19T05:12:53;19.70;99.90
46217;DHT22;47258;59.424;13.482;2022-08-19T05:15:20;19.80;99.90
46217;DHT22;47258;59.424;13.482;2022-08-19T05:17:47;19.90;99.90
46217;DHT22;47258;59.424;13.482;2022-08-19T05:20:28;20.00;99.90
46217;DHT22;47258;59.424;13.482;2022-08-19T05:23:14;20.00;99.90
46217;DHT22;47258;59.424;13.482;2022-08-19T05:25:42;20.00;99.90
46217;DHT22;47258;59.424;13.482;2022-08-19T05:28:10;20.00;99.90
46217;DHT22;47258;59.424;13.482;2022-08-19T05:30:36;20.10;99.90
46217;DHT22;47258;59.424;13.482;2022-08-19T05:33:06;20.20;99.90
46217;DHT22;47258;59.424;13.482;2022-08-19T05:35:36;20.30;99.90
46217;DHT22;47258;59.424;13.482;2022-08-19T05:38:03;20.40;99.90
46217;DHT22;47258;59.424;13.482;2022-08-19T05:40:33;20.40;99.90
46217;DHT22;47258;59.424;13.482;2022-08-19T05:43:02;20.50;99.90
46217;DHT22;47258;59.424;13.482;2022-08-19T05:45:29;20.60;99.90
46217;DHT22;47258;59.424;13.482;2022-08-19T05:47:56;20.60;99.90
46217;DHT22;47258;59.424;13.482;2022-08-19T05:50:24;20.70;99.90
46217;DHT22;47258;59.424;13.482;2022-08-19T05:52:51;20.70;99.90
46217;DHT22;47258;59.424;13.482;2022-08-19T05:55:19;20.70;99.90
46217;DHT22;47258;59.424;13.482;2022-08-19T05:57:49;20.70;99.90
46217;DHT22;47258;59.424;13.482;2022-08-19T06:00:16;20.70;99.90
46217;DHT22;47258;59.424;13.482;2022-08-19T06:02:43;20.80;99.90
46217;DHT22;47258;59.424;13.482;2022-08-19T06:05:11;20.90;99.90
46217;DHT22;47258;59.424;13.482;2022-08-19T06:07:38;21.00;99.90
46217;DHT22;47258;59.424;13.482;2022-08-19T06:10:08;21.10;99.90
46217;DHT22;47258;59.424;13.482;2022-08-19T06:12:35;21.30;99.90
46217;DHT22;47258;59.424;13.482;2022-08-19T06:15:08;21.40;99.90
46217;DHT22;47258;59.424;13.482;2022-08-19T06:17:36;21.30;99.90
46217;DHT22;47258;59.424;13.482;2022-08-19T06:20:04;21.30;99.90
46217;DHT22;47258;59.424;13.482;2022-08-19T06:22:31;21.20;99.90
46217;DHT22;47258;59.424;13.482;2022-08-19T06:24:58;21.30;99.90
46217;DHT22;47258;59.424;13.482;2022-08-19T06:27:25;21.40;99.90
46217;DHT22;47258;59.424;13.482;2022-08-19T06:29:52;21.50;99.90
46217;DHT22;47258;59.424;13.482;2022-08-19T06:32:21;21.60;99.90
46217;DHT22;47258;59.424;13.482;2022-08-19T06:34:47;21.60;99.90
46217;DHT22;47258;59.424;13.482;2022-08-19T06:37:15;21.70;99.90
46217;DHT22;47258;59.424;13.482;2022-08-19T06:39:43;21.60;99.90
46217;DHT22;47258;59.424;13.482;2022-08-19T06:42:11;21.70;99.90
46217;DHT22;47258;59.424;13.482;2022-08-19T06:44:43;21.80;99.90
46217;DHT22;47258;59.424;13.482;2022-08-19T06:47:13;21.80;99.90
46217;DHT22;47258;59.424;13.482;2022-08-19T06:49:41;21.70;99.90
46217;DHT22;47258;59.424;13.482;2022-08-19T06:52:09;21.80;99.90
46217;DHT22;47258;59.424;13.482;2022-08-19T06:54:38;21.80;99.90
46217;DHT22;47258;59.424;13.482;2022-08-19T06:57:06;21.80;99.90
46217;DHT22;47258;59.424;13.482;2022-08-19T06:59:35;21.80;99.90
46217;DHT22;47258;59.424;13.482;2022-08-19T07:02:04;21.70;99.90
46217;DHT22;47258;59.424;13.482;2022-08-19T07:04:33;21.70;99.90
46217;DHT22;47258;59.424;13.482;2022-08-19T07:07:04;22.10;99.90
46217;DHT22;47258;59.424;13.482;2022-08-19T07:09:33;22.50;99.90
46217;DHT22;47258;59.424;13.482;2022-08-19T07:12:03;22.60;99.90
46217;DHT22;47258;59.424;13.482;2022-08-19T07:14:30;22.50;99.90
46217;DHT22;47258;59.424;13.482;2022-08-19T07:16:57;22.40;99.90
46217;DHT22;47258;59.424;13.482;2022-08-19T07:19:26;22.40;99.90
46217;DHT22;47258;59.424;13.482;2022-08-19T07:21:54;22.60;99.90
46217;DHT22;47258;59.424;13.482;2022-08-19T07:24:25;22.80;99.90
46217;DHT22;47258;59.424;13.482;2022-08-19T07:26:54;23.10;99.90
46217;DHT22;47258;59.424;13.482;2022-08-19T07:29:22;23.40;99.90
46217;DHT22;47258;59.424;13.482;2022-08-19T07:31:49;23.90;99.90
46217;DHT22;47258;59.424;13.482;2022-08-19T07:34:17;23.80;99.90
46217;DHT22;47258;59.424;13.482;2022-08-19T07:36:44;24.30;99.90
46217;DHT22;47258;59.424;13.482;2022-08-19T07:39:19;24.20;99.90
46217;DHT22;47258;59.424;13.482;2022-08-19T07:41:48;23.90;99.90
46217;DHT22;47258;59.424;13.482;2022-08-19T07:44:16;23.70;99.90
46217;DHT22;47258;59.424;13.482;2022-08-19T07:46:46;23.60;99.90
46217;DHT22;47258;59.424;13.482;2022-08-19T07:49:14;23.50;99.90
46217;DHT22;47258;59.424;13.482;2022-08-19T07:51:45;23.50;99.90
46217;DHT22;47258;59.424;13.482;2022-08-19T07:54:12;23.50;99.90
46217;DHT22;47258;59.424;13.482;2022-08-19T07:56:39;23.50;99.90
46217;DHT22;47258;59.424;13.482;2022-08-19T07:59:08;23.60;99.90
46217;DHT22;47258;59.424;13.482;2022-08-19T08:01:35;23.70;99.90
46217;DHT22;47258;59.424;13.482;2022-08-19T08:04:03;23.80;99.90
46217;DHT22;47258;59.424;13.482;2022-08-19T08:06:48;23.90;99.90
46217;DHT22;47258;59.424;13.482;2022-08-19T08:09:35;24.10;99.90
46217;DHT22;47258;59.424;13.482;2022-08-19T08:12:02;24.00;99.90
46217;DHT22;47258;59.424;13.482;2022-08-19T08:14:36;23.90;99.90
46217;DHT22;47258;59.424;13.482;2022-08-19T08:17:05;23.80;99.90
46217;DHT22;47258;59.424;13.482;2022-08-19T08:19:32;23.80;99.90
46217;DHT22;47258;59.424;13.482;2022-08-19T08:22:00;23.70;99.90
46217;DHT22;47258;59.424;13.482;2022-08-19T08:24:29;23.70;99.90
46217;DHT22;47258;59.424;13.482;2022-08-19T08:26:58;24.20;99.90
46217;DHT22;47258;59.424;13.482;2022-08-19T08:29:25;25.10;99.90
46217;DHT22;47258;59.424;13.482;2022-08-19T08:34:21;26.60;99.90
46217;DHT22;47258;59.424;13.482;2022-08-19T08:36:48;27.80;99.90
46217;DHT22;47258;59.424;13.482;2022-08-19T08:39:18;27.90;99.90
46217;DHT22;47258;59.424;13.482;2022-08-19T08:41:52;28.20;99.90
46217;DHT22;47258;59.424;13.482;2022-08-19T08:44:23;28.00;99.90
46217;DHT22;47258;59.424;13.482;2022-08-19T08:46:59;27.60;99.90
46217;DHT22;47258;59.424;13.482;2022-08-19T08:49:32;27.30;99.90
46217;DHT22;47258;59.424;13.482;2022-08-19T08:52:04;27.00;99.90
46217;DHT22;47258;59.424;13.482;2022-08-19T08:54:37;26.80;99.90
46217;DHT22;47258;59.424;13.482;2022-08-19T08:57:11;26.60;99.90
46217;DHT22;47258;59.424;13.482;2022-08-19T08:59:41;26.40;99.90
46217;DHT22;47258;59.424;13.482;2022-08-19T09:02:11;26.10;99.90
46217;DHT22;47258;59.424;13.482;2022-08-19T09:09:46;25.50;99.90
46217;DHT22;47258;59.424;13.482;2022-08-19T09:17:17;25.60;99.90
46217;DHT22;47258;59.424;13.482;2022-08-19T09:19:50;25.50;99.90
46217;DHT22;47258;59.424;13.482;2022-08-19T09:22:17;25.50;99.90
46217;DHT22;47258;59.424;13.482;2022-08-19T09:24:47;25.40;99.90
46217;DHT22;47258;59.424;13.482;2022-08-19T09:27:14;25.30;99.90
46217;DHT22;47258;59.424;13.482;2022-08-19T09:29:41;25.10;99.90
46217;DHT22;47258;59.424;13.482;2022-08-19T09:32:08;25.00;99.90
46217;DHT22;47258;59.424;13.482;2022-08-19T09:34:36;25.00;99.90
46217;DHT22;47258;59.424;13.482;2022-08-19T09:37:03;24.80;99.90
46217;DHT22;47258;59.424;13.482;2022-08-19T09:39:31;24.70;99.90
46217;DHT22;47258;59.424;13.482;2022-08-19T09:41:59;24.70;99.90
46217;DHT22;47258;59.424;13.482;2022-08-19T09:44:26;24.70;99.90
46217;DHT22;47258;59.424;13.482;2022-08-19T09:46:53;24.70;99.90
46217;DHT22;47258;59.424;13.482;2022-08-19T09:49:21;24.70;99.90
46217;DHT22;47258;59.424;13.482;2022-08-19T09:51:51;24.80;99.90
46217;DHT22;47258;59.424;13.482;2022-08-19T09:54:22;25.00;99.90
46217;DHT22;47258;59.424;13.482;2022-08-19T09:56:49;25.10;99.90
46217;DHT22;47258;59.424;13.482;2022-08-19T09:59:16;25.30;99.90
46217;DHT22;47258;59.424;13.482;2022-08-19T10:01:43;25.30;99.90
46217;DHT22;47258;59.424;13.482;2022-08-19T10:04:10;25.30;99.90
46217;DHT22;47258;59.424;13.482;2022-08-19T10:06:38;25.30;99.90
46217;DHT22;47258;59.424;13.482;2022-08-19T10:09:10;25.30;99.90
46217;DHT22;47258;59.424;13.482;2022-08-19T10:11:40;25.30;99.90
46217;DHT22;47258;59.424;13.482;2022-08-19T10:14:07;25.30;99.90
46217;DHT22;47258;59.424;13.482;2022-08-19T10:16:36;25.40;99.90
46217;DHT22;47258;59.424;13.482;2022-08-19T10:19:04;25.50;99.90
46217;DHT22;47258;59.424;13.482;2022-08-19T10:21:33;25.60;99.90
46217;DHT22;47258;59.424;13.482;2022-08-19T10:24:03;25.80;99.90
46217;DHT22;47258;59.424;13.482;2022-08-19T10:26:36;25.80;99.90
46217;DHT22;47258;59.424;13.482;2022-08-19T10:29:04;25.80;99.90
46217;DHT22;47258;59.424;13.482;2022-08-19T10:31:33;25.80;99.90
46217;DHT22;47258;59.424;13.482;2022-08-19T10:34:01;25.90;99.90
46217;DHT22;47258;59.424;13.482;2022-08-19T10:36:30;25.90;99.90
46217;DHT22;47258;59.424;13.482;2022-08-19T10:38:59;25.90;99.90
46217;DHT22;47258;59.424;13.482;2022-08-19T10:41:28;26.10;99.90
46217;DHT22;47258;59.424;13.482;2022-08-19T10:44:01;26.10;99.90
46217;DHT22;47258;59.424;13.482;2022-08-19T10:46:29;26.20;99.90
46217;DHT22;47258;59.424;13.482;2022-08-19T10:48:58;26.20;99.90
46217;DHT22;47258;59.424;13.482;2022-08-19T10:51:25;26.20;99.90
46217;DHT22;47258;59.424;13.482;2022-08-19T10:54:09;26.20;99.90
46217;DHT22;47258;59.424;13.482;2022-08-19T10:56:36;26.20;99.90
46217;DHT22;47258;59.424;13.482;2022-08-19T10:59:22;26.30;99.90
46217;DHT22;47258;59.424;13.482;2022-08-19T11:01:50;26.50;99.90
46217;DHT22;47258;59.424;13.482;2022-08-19T11:04:18;26.60;99.90
46217;DHT22;47258;59.424;13.482;2022-08-19T11:06:47;26.60;99.90
46217;DHT22;47258;59.424;13.482;2022-08-19T11:09:16;26.70;99.90
46217;DHT22;47258;59.424;13.482;2022-08-19T11:11:43;26.70;99.90
46217;DHT22;47258;59.424;13.482;2022-08-19T11:14:13;26.80;99.90
46217;DHT22;47258;59.424;13.482;2022-08-19T11:16:41;26.90;99.90
46217;DHT22;47258;59.424;13.482;2022-08-19T11:19:10;26.90;99.90
46217;DHT22;47258;59.424;13.482;2022-08-19T11:21:38;26.80;99.90
46217;DHT22;47258;59.424;13.482;2022-08-19T11:24:07;26.70;99.90
46217;DHT22;47258;59.424;13.482;2022-08-19T11:26:35;26.60;99.90
46217;DHT22;47258;59.424;13.482;2022-08-19T11:29:04;26.70;99.90
46217;DHT22;47258;59.424;13.482;2022-08-19T11:31:34;26.60;99.90
46217;DHT22;47258;59.424;13.482;2022-08-19T11:34:04;26.70;99.90
46217;DHT22;47258;59.424;13.482;2022-08-19T11:36:33;26.80;99.90
46217;DHT22;47258;59.424;13.482;2022-08-19T11:39:01;26.90;99.90
46217;DHT22;47258;59.424;13.482;2022-08-19T11:41:28;27.00;99.90
46217;DHT22;47258;59.424;13.482;2022-08-19T11:43:55;27.10;99.90
46217;DHT22;47258;59.424;13.482;2022-08-19T11:46:23;27.10;99.90
46217;DHT22;47258;59.424;13.482;2022-08-19T11:48:51;27.10;99.90
46217;DHT22;47258;59.424;13.482;2022-08-19T11:51:21;27.10;99.90
46217;DHT22;47258;59.424;13.482;2022-08-19T11:53:50;27.10;99.90
46217;DHT22;47258;59.424;13.482;2022-08-19T11:56:18;27.10;99.90
46217;DHT22;47258;59.424;13.482;2022-08-19T11:58:45;26.90;99.90
46217;DHT22;47258;59.424;13.482;2022-08-19T12:01:16;26.80;99.90
46217;DHT22;47258;59.424;13.482;2022-08-19T12:03:44;26.80;99.90
46217;DHT22;47258;59.424;13.482;2022-08-19T12:06:14;26.70;99.90
46217;DHT22;47258;59.424;13.482;2022-08-19T12:08:43;26.80;99.90
46217;DHT22;47258;59.424;13.482;2022-08-19T12:11:10;26.70;99.90
46217;DHT22;47258;59.424;13.482;2022-08-19T12:13:38;26.70;99.90
46217;DHT22;47258;59.424;13.482;2022-08-19T12:16:08;26.60;99.90
46217;DHT22;47258;59.424;13.482;2022-08-19T12:18:36;26.50;99.90
46217;DHT22;47258;59.424;13.482;2022-08-19T12:21:04;26.50;99.90
46217;DHT22;47258;59.424;13.482;2022-08-19T12:23:31;26.50;99.90
46217;DHT22;47258;59.424;13.482;2022-08-19T12:25:59;26.50;99.90
46217;DHT22;47258;59.424;13.482;2022-08-19T12:28:26;26.50;99.90
46217;DHT22;47258;59.424;13.482;2022-08-19T12:30:53;26.50;99.90
46217;DHT22;47258;59.424;13.482;2022-08-19T12:33:20;26.50;99.90
46217;DHT22;47258;59.424;13.482;2022-08-19T12:35:50;26.50;99.90
46217;DHT22;47258;59.424;13.482;2022-08-19T12:38:18;26.50;99.90
46217;DHT22;47258;59.424;13.482;2022-08-19T12:40:46;26.50;99.90
46217;DHT22;47258;59.424;13.482;2022-08-19T12:43:14;26.50;99.90
46217;DHT22;47258;59.424;13.482;2022-08-19T12:45:42;26.40;99.90
46217;DHT22;47258;59.424;13.482;2022-08-19T12:48:10;26.40;99.90
46217;DHT22;47258;59.424;13.482;2022-08-19T12:50:39;26.30;99.90
46217;DHT22;47258;59.424;13.482;2022-08-19T12:53:06;26.30;99.90
46217;DHT22;47258;59.424;13.482;2022-08-19T12:55:33;26.30;99.90
46217;DHT22;47258;59.424;13.482;2022-08-19T12:58:00;26.30;99.90
46217;DHT22;47258;59.424;13.482;2022-08-19T13:00:29;26.30;99.90
46217;DHT22;47258;59.424;13.482;2022-08-19T13:02:58;26.40;99.90
46217;DHT22;47258;59.424;13.482;2022-08-19T13:05:28;26.50;99.90
46217;DHT22;47258;59.424;13.482;2022-08-19T13:07:57;26.50;99.90
46217;DHT22;47258;59.424;13.482;2022-08-19T13:10:28;26.60;99.90
46217;DHT22;47258;59.424;13.482;2022-08-19T13:12:56;26.70;99.90
46217;DHT22;47258;59.424;13.482;2022-08-19T13:15:25;26.70;99.90
46217;DHT22;47258;59.424;13.482;2022-08-19T13:17:58;26.80;99.90
46217;DHT22;47258;59.424;13.482;2022-08-19T13:20:25;26.80;99.90
46217;DHT22;47258;59.424;13.482;2022-08-19T13:22:53;26.70;99.90
46217;DHT22;47258;59.424;13.482;2022-08-19T13:25:20;26.60;99.90
46217;DHT22;47258;59.424;13.482;2022-08-19T13:27:49;26.60;99.90
46217;DHT22;47258;59.424;13.482;2022-08-19T13:30:18;26.60;99.90
46217;DHT22;47258;59.424;13.482;2022-08-19T13:33:04;26.60;99.90
46217;DHT22;47258;59.424;13.482;2022-08-19T13:35:46;26.70;99.90
46217;DHT22;47258;59.424;13.482;2022-08-19T13:38:14;26.80;99.90
46217;DHT22;47258;59.424;13.482;2022-08-19T13:40:42;26.80;99.90
46217;DHT22;47258;59.424;13.482;2022-08-19T13:43:09;26.80;99.90
46217;DHT22;47258;59.424;13.482;2022-08-19T13:45:36;26.90;99.90
46217;DHT22;47258;59.424;13.482;2022-08-19T13:48:07;27.00;99.90
46217;DHT22;47258;59.424;13.482;2022-08-19T13:50:38;26.90;99.90
46217;DHT22;47258;59.424;13.482;2022-08-19T13:53:06;26.90;99.90
46217;DHT22;47258;59.424;13.482;2022-08-19T13:55:33;27.00;99.90
46217;DHT22;47258;59.424;13.482;2022-08-19T13:58:02;27.10;99.90
46217;DHT22;47258;59.424;13.482;2022-08-19T14:00:31;27.20;99.90
46217;DHT22;47258;59.424;13.482;2022-08-19T14:02:58;27.10;99.90
46217;DHT22;47258;59.424;13.482;2022-08-19T14:05:28;27.20;99.90
46217;DHT22;47258;59.424;13.482;2022-08-19T14:07:55;27.20;99.90
46217;DHT22;47258;59.424;13.482;2022-08-19T14:10:23;27.20;99.90
46217;DHT22;47258;59.424;13.482;2022-08-19T14:12:53;27.20;99.90
46217;DHT22;47258;59.424;13.482;2022-08-19T14:15:21;27.20;99.90
46217;DHT22;47258;59.424;13.482;2022-08-19T14:17:49;27.30;99.90
46217;DHT22;47258;59.424;13.482;2022-08-19T14:20:16;27.40;99.90
46217;DHT22;47258;59.424;13.482;2022-08-19T14:22:46;27.40;99.90
46217;DHT22;47258;59.424;13.482;2022-08-19T14:25:19;27.40;99.90
46217;DHT22;47258;59.424;13.482;2022-08-19T14:27:47;27.40;99.90
46217;DHT22;47258;59.424;13.482;2022-08-19T14:30:16;27.30;99.90
46217;DHT22;47258;59.424;13.482;2022-08-19T14:32:43;27.30;99.90
46217;DHT22;47258;59.424;13.482;2022-08-19T14:35:12;27.30;99.90
46217;DHT22;47258;59.424;13.482;2022-08-19T14:37:41;27.30;99.90
46217;DHT22;47258;59.424;13.482;2022-08-19T14:40:11;27.30;99.90
46217;DHT22;47258;59.424;13.482;2022-08-19T14:42:38;27.30;99.90
46217;DHT22;47258;59.424;13.482;2022-08-19T14:45:07;27.20;99.90
46217;DHT22;47258;59.424;13.482;2022-08-19T14:47:35;27.30;99.90
46217;DHT22;47258;59.424;13.482;2022-08-19T14:50:04;27.30;99.90
46217;DHT22;47258;59.424;13.482;2022-08-19T14:52:32;27.30;99.90
46217;DHT22;47258;59.424;13.482;2022-08-19T14:54:59;27.20;99.90
46217;DHT22;47258;59.424;13.482;2022-08-19T14:57:27;27.10;99.90
46217;DHT22;47258;59.424;13.482;2022-08-19T14:59:55;27.10;99.90
46217;DHT22;47258;59.424;13.482;2022-08-19T15:02:22;27.10;99.90
46217;DHT22;47258;59.424;13.482;2022-08-19T15:04:49;27.00;99.90
46217;DHT22;47258;59.424;13.482;2022-08-19T15:07:17;26.90;99.90
46217;DHT22;47258;59.424;13.482;2022-08-19T15:09:44;26.80;99.90
46217;DHT22;47258;59.424;13.482;2022-08-19T15:12:11;26.70;99.90
46217;DHT22;47258;59.424;13.482;2022-08-19T15:14:39;26.60;99.90
46217;DHT22;47258;59.424;13.482;2022-08-19T15:17:07;26.50;99.90
46217;DHT22;47258;59.424;13.482;2022-08-19T15:19:34;26.40;99.90
46217;DHT22;47258;59.424;13.482;2022-08-19T15:22:02;26.30;99.90
46217;DHT22;47258;59.424;13.482;2022-08-19T15:24:29;26.30;99.90
46217;DHT22;47258;59.424;13.482;2022-08-19T15:26:56;26.20;99.90
46217;DHT22;47258;59.424;13.482;2022-08-19T15:29:23;26.20;99.90
46217;DHT22;47258;59.424;13.482;2022-08-19T15:31:52;26.20;99.90
46217;DHT22;47258;59.424;13.482;2022-08-19T15:34:20;26.20;99.90
46217;DHT22;47258;59.424;13.482;2022-08-19T15:36:47;26.10;99.90